createdAt,value
2018-05-29T00:02:30.154Z,18.60
2018-05-29T00:05:33.468Z,18.60
2018-05-29T00:08:37.558Z,18.50
2018-05-29T00:11:40.861Z,18.50
2018-05-29T00:14:44.187Z,18.50
2018-05-29T00:17:47.502Z,18.50
2018-05-29T00:20:50.838Z,18.50
2018-05-29T00:23:54.149Z,18.50
2018-05-29T00:26:57.466Z,18.40
2018-05-29T00:30:01.538Z,18.40
2018-05-29T00:33:04.877Z,18.40
2018-05-29T00:36:08.949Z,18.50
2018-05-29T00:39:12.267Z,18.50
2018-05-29T00:42:15.577Z,18.40
2018-05-29T00:45:19.662Z,18.40
2018-05-29T00:48:22.977Z,18.40
2018-05-29T00:51:26.300Z,18.40
2018-05-29T00:54:29.609Z,18.30
2018-05-29T00:57:33.706Z,18.30
2018-05-29T01:00:37.019Z,18.30
2018-05-29T01:03:41.108Z,18.20
2018-05-29T01:06:45.186Z,18.20
2018-05-29T01:09:48.505Z,18.20
2018-05-29T01:12:51.833Z,18.30
2018-05-29T01:15:55.137Z,18.10
2018-05-29T01:18:58.462Z,18.20
2018-05-29T01:22:01.766Z,18.20
2018-05-29T01:25:05.090Z,18.20
2018-05-29T01:28:08.393Z,18.20
2018-05-29T01:31:12.482Z,18.20
2018-05-29T01:34:15.794Z,18.20
2018-05-29T01:37:19.110Z,18.30
2018-05-29T01:40:23.195Z,18.20
2018-05-29T01:43:26.681Z,18.20
2018-05-29T01:46:29.993Z,18.20
2018-05-29T01:49:33.314Z,18.10
2018-05-29T01:52:37.395Z,18.20
2018-05-29T01:55:40.714Z,18.20
2018-05-29T01:58:44.794Z,18.20
2018-05-29T02:01:49.766Z,18.20
2018-05-29T02:04:53.849Z,18.40
2018-05-29T02:07:57.166Z,18.40
2018-05-29T02:11:00.493Z,18.50
2018-05-29T02:14:03.806Z,18.50
2018-05-29T02:17:07.122Z,18.60
2018-05-29T02:20:10.434Z,18.60
2018-05-29T02:23:13.768Z,18.70
2018-05-29T02:26:17.075Z,18.70
2018-05-29T02:29:20.393Z,18.70
2018-05-29T02:32:23.714Z,18.70
2018-05-29T02:35:27.031Z,18.80
2018-05-29T02:38:30.346Z,18.90
2018-05-29T02:41:33.684Z,18.80
2018-05-29T02:44:36.993Z,18.70
2018-05-29T02:47:40.478Z,18.60
2018-05-29T02:50:43.785Z,18.50
2018-05-29T02:53:47.106Z,18.30
2018-05-29T02:56:50.413Z,18.30
2018-05-29T02:59:53.746Z,18.30
2018-05-29T03:02:57.079Z,18.40
2018-05-29T03:06:00.422Z,18.30
2018-05-29T03:09:04.501Z,18.30
2018-05-29T03:12:07.820Z,18.30
2018-05-29T03:15:11.142Z,18.30
2018-05-29T03:18:14.450Z,18.30
2018-05-29T03:21:17.765Z,18.30
2018-05-29T03:24:21.110Z,18.30
2018-05-29T03:27:24.418Z,18.30
2018-05-29T03:30:27.739Z,18.20
2018-05-29T03:33:31.054Z,18.20
2018-05-29T03:36:34.375Z,18.10
2018-05-29T03:39:37.702Z,18.10
2018-05-29T03:42:41.781Z,18.20
2018-05-29T03:45:45.114Z,18.20
2018-05-29T03:48:49.193Z,18.20
2018-05-29T03:51:52.519Z,18.20
2018-05-29T03:54:56.622Z,18.10
2018-05-29T03:57:59.937Z,18.10
2018-05-29T04:01:04.030Z,18.10
2018-05-29T04:04:08.108Z,18.10
2018-05-29T04:07:11.430Z,18.10
2018-05-29T04:10:14.730Z,18.20
2018-05-29T04:13:19.020Z,18.30
2018-05-29T04:16:22.333Z,18.40
2018-05-29T04:19:25.658Z,18.40
2018-05-29T04:22:28.979Z,18.40
2018-05-29T04:25:32.317Z,18.40
2018-05-29T04:28:35.626Z,18.40
2018-05-29T04:31:38.958Z,18.40
2018-05-29T04:34:43.031Z,18.50
2018-05-29T04:37:46.357Z,18.50
2018-05-29T04:40:49.665Z,18.50
2018-05-29T04:43:53.752Z,18.50
2018-05-29T04:46:57.068Z,18.50
2018-05-29T04:50:01.153Z,18.30
2018-05-29T04:53:04.469Z,18.30
2018-05-29T04:56:07.785Z,18.20
2018-05-29T04:59:11.880Z,18.10
2018-05-29T05:02:15.212Z,18.10
2018-05-29T05:05:18.529Z,18.10
2018-05-29T05:08:21.833Z,18.10
2018-05-29T05:11:25.149Z,18.10
2018-05-29T05:14:28.470Z,18.10
2018-05-29T05:17:31.779Z,18.10
2018-05-29T05:20:35.869Z,18.10
2018-05-29T05:23:39.177Z,18.10
2018-05-29T05:26:42.505Z,18.10
2018-05-29T05:29:45.818Z,18.10
2018-05-29T05:32:49.129Z,18.20
2018-05-29T05:35:52.429Z,18.20
2018-05-29T05:38:55.767Z,18.20
2018-05-29T05:41:59.068Z,18.20
2018-05-29T05:45:03.149Z,18.10
2018-05-29T05:48:06.511Z,18.00
2018-05-29T05:51:10.563Z,18.00
2018-05-29T05:54:13.885Z,18.00
2018-05-29T05:57:17.957Z,18.00
2018-05-29T06:00:21.277Z,18.00
2018-05-29T06:03:24.604Z,18.00
2018-05-29T06:06:27.913Z,18.00
2018-05-29T06:09:31.234Z,18.00
2018-05-29T06:12:34.550Z,18.00
2018-05-29T06:15:37.867Z,18.00
2018-05-29T06:18:41.205Z,18.10
2018-05-29T06:21:44.518Z,18.00
2018-05-29T06:24:47.845Z,18.00
2018-05-29T06:27:51.163Z,18.10
2018-05-29T06:30:55.244Z,18.20
2018-05-29T06:33:58.569Z,18.10
2018-05-29T06:37:01.915Z,18.10
2018-05-29T06:40:05.230Z,18.10
2018-05-29T06:43:08.549Z,18.10
2018-05-29T06:46:11.856Z,18.00
2018-05-29T06:49:15.182Z,18.00
2018-05-29T06:52:18.496Z,17.90
2018-05-29T06:55:21.813Z,17.90
2018-05-29T06:58:25.117Z,17.90
2018-05-29T07:01:28.438Z,18.10
2018-05-29T07:04:31.751Z,18.10
2018-05-29T07:07:35.833Z,18.10
2018-05-29T07:10:39.142Z,18.10
2018-05-29T07:13:42.459Z,18.30
2018-05-29T07:16:46.558Z,19.10
2018-05-29T07:19:49.895Z,19.00
2018-05-29T07:22:53.228Z,19.20
2018-05-29T07:25:56.533Z,19.30
2018-05-29T07:28:59.850Z,19.40
2018-05-29T07:32:03.149Z,19.60
2018-05-29T07:35:07.226Z,19.90
2018-05-29T07:38:10.530Z,19.90
2018-05-29T07:41:13.865Z,20.00
2018-05-29T07:44:17.937Z,20.20
2018-05-29T07:47:21.244Z,20.30
2018-05-29T07:50:24.573Z,20.50
2018-05-29T07:53:28.660Z,20.80
2018-05-29T07:56:32.757Z,21.00
2018-05-29T07:59:36.075Z,21.00
2018-05-29T08:02:39.382Z,21.10
2018-05-29T08:05:43.458Z,21.40
2018-05-29T08:08:46.768Z,21.40
2018-05-29T08:11:50.077Z,21.40
2018-05-29T08:14:53.386Z,21.50
2018-05-29T08:17:56.702Z,21.70
2018-05-29T08:21:00.773Z,22.10
2018-05-29T08:24:04.093Z,22.10
2018-05-29T08:27:07.392Z,22.20
2018-05-29T08:30:11.473Z,22.40
2018-05-29T08:33:14.779Z,22.40
2018-05-29T08:36:18.106Z,22.50
2018-05-29T08:39:22.231Z,22.50
2018-05-29T08:42:25.505Z,22.50
2018-05-29T08:45:28.805Z,22.60
2018-05-29T08:48:32.113Z,22.60
2018-05-29T08:51:36.189Z,22.80
2018-05-29T08:54:39.502Z,22.80
2018-05-29T08:57:42.827Z,23.00
2018-05-29T09:00:46.135Z,23.20
2018-05-29T09:03:49.548Z,23.30
2018-05-29T09:06:52.814Z,23.40
2018-05-29T09:09:56.913Z,23.60
2018-05-29T09:13:00.226Z,23.60
2018-05-29T09:16:04.301Z,23.60
2018-05-29T09:19:07.605Z,23.60
2018-05-29T09:22:10.913Z,23.50
2018-05-29T09:25:14.209Z,23.50
2018-05-29T09:28:17.525Z,23.60
2018-05-29T09:31:21.708Z,23.60
2018-05-29T09:34:25.021Z,23.60
2018-05-29T09:37:29.137Z,23.80
2018-05-29T09:40:32.441Z,23.80
2018-05-29T09:43:36.533Z,24.00
2018-05-29T09:46:39.841Z,23.90
2018-05-29T09:49:43.170Z,24.00
2018-05-29T09:52:46.479Z,24.10
2018-05-29T09:55:49.801Z,24.00
2018-05-29T09:58:53.096Z,24.10
2018-05-29T10:01:56.410Z,24.10
2018-05-29T10:04:59.730Z,24.20
2018-05-29T10:08:03.806Z,24.40
2018-05-29T10:11:07.130Z,24.40
2018-05-29T10:14:10.436Z,24.40
2018-05-29T10:17:14.517Z,24.50
2018-05-29T10:20:17.828Z,24.50
2018-05-29T10:23:21.149Z,24.50
2018-05-29T10:26:24.458Z,24.50
2018-05-29T10:29:27.785Z,24.50
2018-05-29T10:32:31.278Z,24.50
2018-05-29T10:35:34.590Z,24.60
2018-05-29T10:38:37.909Z,24.70
2018-05-29T10:41:41.217Z,24.70
2018-05-29T10:44:44.534Z,24.70
2018-05-29T10:47:47.861Z,24.80
2018-05-29T10:50:51.170Z,24.80
2018-05-29T10:53:54.689Z,24.90
2018-05-29T10:56:58.012Z,24.90
2018-05-29T11:00:02.109Z,25.00
2018-05-29T11:03:05.425Z,25.00
2018-05-29T11:06:09.517Z,25.10
2018-05-29T11:09:12.830Z,25.10
2018-05-29T11:12:16.158Z,25.20
2018-05-29T11:15:19.469Z,25.20
2018-05-29T11:18:22.797Z,25.20
2018-05-29T11:21:26.100Z,25.40
2018-05-29T11:24:29.425Z,25.40
2018-05-29T11:27:33.513Z,25.30
2018-05-29T11:30:36.829Z,25.20
2018-05-29T11:33:40.903Z,25.30
2018-05-29T11:36:44.228Z,25.30
2018-05-29T11:39:47.555Z,25.30
2018-05-29T11:42:50.878Z,25.30
2018-05-29T11:45:54.204Z,25.40
2018-05-29T11:48:57.521Z,25.40
2018-05-29T11:52:00.846Z,25.50
2018-05-29T11:55:04.161Z,25.50
2018-05-29T11:58:07.480Z,25.60
2018-05-29T12:01:10.795Z,25.70
2018-05-29T12:04:14.113Z,25.80
2018-05-29T12:07:17.534Z,25.90
2018-05-29T12:10:20.863Z,25.80
2018-05-29T12:13:24.186Z,25.80
2018-05-29T12:16:27.507Z,25.70
2018-05-29T12:19:31.590Z,25.70
2018-05-29T12:22:34.906Z,25.70
2018-05-29T12:25:38.229Z,25.70
2018-05-29T12:28:41.538Z,25.70
2018-05-29T12:31:44.859Z,25.70
2018-05-29T12:34:48.174Z,25.70
2018-05-29T12:37:51.489Z,25.70
2018-05-29T12:40:54.818Z,25.70
2018-05-29T12:43:58.146Z,25.70
2018-05-29T12:47:01.453Z,25.70
2018-05-29T12:50:04.932Z,25.70
2018-05-29T12:53:08.241Z,25.70
2018-05-29T12:56:11.566Z,25.80
2018-05-29T12:59:14.886Z,25.80
2018-05-29T13:02:18.970Z,25.80
2018-05-29T13:05:22.292Z,25.80
2018-05-29T13:08:25.621Z,25.90
2018-05-29T13:11:28.930Z,25.90
2018-05-29T13:14:32.258Z,26.00
2018-05-29T13:17:35.570Z,26.00
2018-05-29T13:20:39.654Z,26.20
2018-05-29T13:23:42.958Z,26.10
2018-05-29T13:26:46.287Z,26.20
2018-05-29T13:29:50.358Z,26.30
2018-05-29T13:32:53.672Z,26.30
2018-05-29T13:35:56.978Z,26.40
2018-05-29T13:39:00.300Z,26.40
2018-05-29T13:42:04.365Z,26.60
2018-05-29T13:45:07.685Z,26.50
2018-05-29T13:48:11.787Z,26.60
2018-05-29T13:51:15.090Z,26.50
2018-05-29T13:54:18.410Z,26.60
2018-05-29T13:57:22.485Z,26.60
2018-05-29T14:00:25.790Z,26.60
2018-05-29T14:03:29.113Z,26.70
2018-05-29T14:06:33.186Z,26.80
2018-05-29T14:09:36.510Z,26.70
2018-05-29T14:12:39.814Z,26.80
2018-05-29T14:15:43.134Z,26.80
2018-05-29T14:18:46.487Z,26.80
2018-05-29T14:21:49.774Z,26.80
2018-05-29T14:24:53.081Z,26.80
2018-05-29T14:27:56.390Z,26.80
2018-05-29T14:30:59.710Z,26.80
2018-05-29T14:34:03.017Z,26.80
2018-05-29T14:37:06.330Z,27.00
2018-05-29T14:40:09.637Z,27.10
2018-05-29T14:43:13.126Z,27.30
2018-05-29T14:46:16.447Z,27.50
2018-05-29T14:49:19.785Z,27.50
2018-05-29T14:52:23.911Z,27.50
2018-05-29T14:55:27.205Z,27.50
2018-05-29T14:58:31.281Z,27.70
2018-05-29T15:01:34.741Z,27.70
2018-05-29T15:04:38.045Z,27.80
2018-05-29T15:07:41.369Z,27.90
2018-05-29T15:10:44.684Z,28.00
2018-05-29T15:13:48.021Z,28.00
2018-05-29T15:16:51.354Z,28.00
2018-05-29T15:19:54.675Z,28.00
2018-05-29T15:22:58.010Z,28.00
2018-05-29T15:26:01.365Z,28.00
2018-05-29T15:29:04.655Z,27.90
2018-05-29T15:32:07.969Z,27.80
2018-05-29T15:35:11.287Z,27.70
2018-05-29T15:38:14.593Z,27.80
2018-05-29T15:41:17.937Z,27.80
2018-05-29T15:44:21.258Z,27.80
2018-05-29T15:47:25.337Z,27.80
2018-05-29T15:50:28.742Z,27.80
2018-05-29T15:53:32.058Z,27.70
2018-05-29T15:56:35.378Z,27.80
2018-05-29T15:59:38.681Z,27.50
2018-05-29T16:02:41.990Z,27.50
2018-05-29T16:05:45.293Z,27.60
2018-05-29T16:08:48.609Z,27.40
2018-05-29T16:11:51.918Z,27.30
2018-05-29T16:14:55.237Z,27.00
2018-05-29T16:17:58.554Z,26.90
2018-05-29T16:21:02.651Z,26.40
2018-05-29T16:24:06.919Z,26.10
2018-05-29T16:27:13.614Z,26.10
2018-05-29T16:30:16.933Z,25.90
2018-05-29T16:33:20.241Z,25.70
2018-05-29T16:36:23.633Z,25.60
2018-05-29T16:39:26.974Z,25.40
2018-05-29T16:42:30.282Z,25.30
2018-05-29T16:45:33.590Z,25.20
2018-05-29T16:48:36.906Z,25.10
2018-05-29T16:51:40.217Z,25.00
2018-05-29T16:54:43.533Z,24.90
2018-05-29T16:57:46.846Z,24.80
2018-05-29T17:00:50.186Z,24.70
2018-05-29T17:03:53.489Z,24.70
2018-05-29T17:06:56.829Z,24.60
2018-05-29T17:10:00.142Z,24.50
2018-05-29T17:13:03.453Z,24.40
2018-05-29T17:16:06.775Z,24.30
2018-05-29T17:19:10.734Z,24.20
2018-05-29T17:22:14.058Z,24.10
2018-05-29T17:25:17.394Z,24.00
2018-05-29T17:28:20.714Z,23.90
2018-05-29T17:31:24.022Z,23.80
2018-05-29T17:34:27.348Z,23.90
2018-05-29T17:37:30.648Z,23.90
2018-05-29T17:40:33.957Z,23.80
2018-05-29T17:43:37.265Z,23.70
2018-05-29T17:46:40.578Z,23.80
2018-05-29T17:49:44.661Z,23.60
2018-05-29T17:52:47.997Z,23.60
2018-05-29T17:55:52.110Z,23.50
2018-05-29T17:58:56.215Z,23.40
2018-05-29T18:01:59.529Z,23.40
2018-05-29T18:05:02.842Z,23.40
2018-05-29T18:08:06.159Z,23.30
2018-05-29T18:11:09.545Z,23.30
2018-05-29T18:14:12.862Z,23.20
2018-05-29T18:17:16.160Z,23.20
2018-05-29T18:20:19.646Z,23.10
2018-05-29T18:23:22.949Z,23.10
2018-05-29T18:26:26.283Z,23.00
2018-05-29T18:29:29.595Z,22.90
2018-05-29T18:32:33.674Z,22.90
2018-05-29T18:35:36.982Z,22.90
2018-05-29T18:38:40.318Z,22.80
2018-05-29T18:41:43.621Z,22.80
2018-05-29T18:44:47.007Z,22.60
2018-05-29T18:47:51.114Z,22.50
2018-05-29T18:50:54.414Z,22.50
2018-05-29T18:53:58.501Z,22.40
2018-05-29T18:57:01.828Z,22.40
2018-05-29T19:00:05.137Z,22.40
2018-05-29T19:03:08.454Z,22.30
2018-05-29T19:06:11.754Z,22.20
2018-05-29T19:09:15.071Z,22.10
2018-05-29T19:12:18.379Z,22.10
2018-05-29T19:15:21.708Z,22.00
2018-05-29T19:18:25.787Z,21.90
2018-05-29T19:21:29.110Z,21.80
2018-05-29T19:24:34.192Z,21.70
2018-05-29T19:27:38.012Z,21.70
2018-05-29T19:30:41.327Z,21.70
2018-05-29T19:33:44.645Z,21.70
2018-05-29T19:36:48.717Z,21.60
2018-05-29T19:39:52.041Z,21.50
2018-05-29T19:42:55.350Z,21.50
2018-05-29T19:45:58.690Z,21.40
2018-05-29T19:49:02.004Z,21.40
2018-05-29T19:52:05.318Z,21.20
2018-05-29T19:55:08.620Z,21.20
2018-05-29T19:58:11.934Z,21.10
2018-05-29T20:01:16.053Z,21.00
2018-05-29T20:04:19.349Z,21.00
2018-05-29T20:07:23.423Z,20.90
2018-05-29T20:10:26.773Z,20.90
2018-05-29T20:13:30.841Z,20.70
2018-05-29T20:16:34.154Z,20.70
2018-05-29T20:19:37.478Z,20.80
2018-05-29T20:22:41.550Z,20.60
2018-05-29T20:25:44.870Z,20.60
2018-05-29T20:28:48.178Z,20.60
2018-05-29T20:31:52.274Z,20.40
2018-05-29T20:34:55.616Z,20.40
2018-05-29T20:37:58.918Z,20.30
2018-05-29T20:41:02.261Z,20.20
2018-05-29T20:44:05.565Z,20.20
2018-05-29T20:47:08.888Z,20.10
2018-05-29T20:50:12.198Z,20.10
2018-05-29T20:53:15.537Z,20.00
2018-05-29T20:56:18.849Z,20.00
2018-05-29T20:59:22.161Z,19.90
2018-05-29T21:02:25.470Z,19.90
2018-05-29T21:05:28.794Z,19.90
2018-05-29T21:08:32.105Z,19.80
2018-05-29T21:11:35.435Z,19.80
2018-05-29T21:14:38.745Z,19.70
2018-05-29T21:17:42.093Z,19.60
2018-05-29T21:20:45.402Z,19.60
2018-05-29T21:23:48.713Z,19.60
2018-05-29T21:26:52.021Z,19.60
2018-05-29T21:29:56.130Z,19.50
2018-05-29T21:32:59.462Z,19.50
2018-05-29T21:36:02.778Z,19.50
2018-05-29T21:39:06.806Z,19.50
2018-05-29T21:42:10.118Z,19.40
2018-05-29T21:45:13.422Z,19.50
2018-05-29T21:48:16.733Z,19.40
2018-05-29T21:51:20.030Z,19.40
2018-05-29T21:54:23.342Z,19.30
2018-05-29T21:57:26.650Z,19.30
2018-05-29T22:00:29.970Z,19.20
2018-05-29T22:03:33.282Z,19.20
2018-05-29T22:06:36.597Z,19.20
2018-05-29T22:09:39.949Z,19.10
2018-05-29T22:12:43.253Z,19.10
2018-05-29T22:15:46.577Z,19.00
2018-05-29T22:18:49.876Z,19.10
2018-05-29T22:21:53.293Z,19.10
2018-05-29T22:24:56.613Z,19.00
2018-05-29T22:27:59.923Z,19.00
2018-05-29T22:31:03.258Z,19.00
2018-05-29T22:34:06.561Z,19.00
2018-05-29T22:37:09.882Z,19.00
2018-05-29T22:40:13.206Z,19.00
2018-05-29T22:43:16.525Z,19.00
2018-05-29T22:46:19.838Z,18.90
2018-05-29T22:49:23.158Z,18.90
2018-05-29T22:52:26.457Z,18.90
2018-05-29T22:55:29.777Z,18.80
2018-05-29T22:58:33.840Z,18.70
2018-05-29T23:01:37.166Z,18.70
2018-05-29T23:04:40.473Z,18.70
2018-05-29T23:07:44.562Z,18.60
2018-05-29T23:10:47.878Z,18.60
2018-05-29T23:13:51.182Z,18.60
2018-05-29T23:16:55.270Z,18.50
2018-05-29T23:19:58.576Z,18.40
2018-05-29T23:23:01.900Z,18.40
2018-05-29T23:26:05.968Z,18.30
2018-05-29T23:29:09.285Z,18.30
2018-05-29T23:32:12.593Z,18.30
2018-05-29T23:35:16.722Z,18.40
2018-05-29T23:38:20.078Z,18.30
2018-05-29T23:41:23.449Z,18.30
2018-05-29T23:44:26.813Z,18.20
2018-05-29T23:47:30.190Z,18.20
2018-05-29T23:50:34.346Z,18.20
2018-05-29T23:53:37.710Z,18.10
2018-05-29T23:56:41.853Z,18.10
2018-05-29T23:59:45.233Z,18.10
